Pagrindinis puslapis
METAR-TAF:

METAR-TAF

Oro uostai :

Garner Field

Uvalde, Teksasas, Jungtinės Amerikos Valstijos

platuma: 29-12-40N, ilguma: 099-44-36W, Aukštis: 287 m

Dabartinis oras

Ataskaita buvo paskelbta 21 minutes, ne 03:35 UTC
Vėjas 7 kt iš Rytų/Pietryčių
Temperatūra 19°C
Drėgmė 78%
Slėgis 1024 hPa
Matomumas: 16.1 km
Giedras dangus

METAR: KUVA 140335Z AUTO 11007KT 10SM CLR 19/15 A3023 RMK AO2 T01920147

Laikas: 22:56 (03:56 UTC)


TAF: trūkstamas

Orai ataskaitas ir orų prognozės (METAR, TAF).

turimą stotys yra geltonos ir raudonos taškus žemėlapyje.

Perkelti pele per norėdami pamatyti stoties vardą.

Tada spustelėkite, norėdami matyti oro stebėjimo ir prognozės.

Norėdami pakeisti žemėlapį: spustelėkite ant žalios mygtukų su juodo kryžiaus žemyn,; žalią mygtuką su brūkšneliu, jei norite nutolinti; arba žalių rodyklių gretimoms žemėlapius.


METAR-TAF: